Time;durP1;ratioP1;P1;durP2;ratioP2;P2;SDS_P1;SDS_P2;PMS_P1;PMS_P2;Temp;Humidity;BMP_temperature;BMP_pressure;BME280_temperature;BME280_humidity;BME280_pressure;Samples;Min_cycle;Max_cycle;Signal;HPM_P1;HPM_P2
2024/01/26 00:01:28;;;;;;;21.80;5.00;;;7.90;99.90;;;;;;5010147;28;20037;-75
2024/01/26 00:03:57;;;;;;;21.98;4.68;;;8.00;99.90;;;;;;5009847;28;20018;-75
2024/01/26 00:06:23;;;;;;;17.88;4.50;;;7.90;99.90;;;;;;5009813;28;20038;-74
2024/01/26 00:08:49;;;;;;;27.20;5.18;;;7.90;99.90;;;;;;5001959;28;20100;-75
2024/01/26 00:11:15;;;;;;;20.52;4.60;;;7.90;99.90;;;;;;5009749;28;20030;-75
2024/01/26 00:13:41;;;;;;;29.00;4.95;;;8.00;99.90;;;;;;5009606;28;20028;-75
2024/01/26 00:16:09;;;;;;;24.80;5.00;;;8.00;99.90;;;;;;5002692;28;20061;-75
2024/01/26 00:18:35;;;;;;;;;;;8.00;99.90;;;;;;5007049;28;20117;-74
2024/01/26 00:21:03;;;;;;;27.92;4.78;;;8.00;99.90;;;;;;5008699;28;19925;-74
2024/01/26 00:23:29;;;;;;;25.70;5.03;;;8.00;99.90;;;;;;5008682;28;20289;-75
2024/01/26 00:25:56;;;;;;;24.88;4.05;;;8.00;99.90;;;;;;5009137;28;20510;-74
2024/01/26 00:28:23;;;;;;;18.48;4.05;;;8.00;99.90;;;;;;5009587;28;20029;-75
2024/01/26 00:30:49;;;;;;;22.50;4.50;;;8.00;99.90;;;;;;5007719;28;20503;-74
2024/01/26 00:33:17;;;;;;;24.38;4.78;;;8.00;99.90;;;;;;5007271;28;20026;-75
2024/01/26 00:35:43;;;;;;;32.30;4.28;;;8.00;99.90;;;;;;5004609;28;20034;-74
2024/01/26 00:38:09;;;;;;;30.45;5.22;;;8.00;99.90;;;;;;5008183;28;20113;-74
2024/01/26 00:40:36;;;;;;;33.65;5.38;;;8.10;99.90;;;;;;5009167;28;20033;-74
2024/01/26 00:43:02;;;;;;;20.52;4.72;;;8.10;99.90;;;;;;5002328;28;20105;-75
2024/01/26 00:45:28;;;;;;;29.90;4.70;;;8.10;99.90;;;;;;5011854;23;20160;-74
2024/01/26 00:47:53;;;;;;;18.50;4.32;;;8.10;99.90;;;;;;5008158;28;20054;-74
2024/01/26 00:50:19;;;;;;;24.02;4.57;;;8.10;99.90;;;;;;5005773;28;20041;-74
2024/01/26 00:52:47;;;;;;;18.02;4.60;;;8.10;99.90;;;;;;5008281;28;20038;-75
2024/01/26 00:55:15;;;;;;;30.38;4.47;;;8.10;99.90;;;;;;5007098;28;20022;-74
2024/01/26 00:57:40;;;;;;;24.90;4.43;;;8.20;99.90;;;;;;4985120;28;20034;-75
2024/01/26 01:00:07;;;;;;;27.33;5.35;;;8.10;99.90;;;;;;5007088;28;20038;-74
2024/01/26 01:02:33;;;;;;;23.95;4.70;;;8.10;99.90;;;;;;5012897;28;20463;-75
2024/01/26 01:05:00;;;;;;;26.70;4.63;;;8.20;99.90;;;;;;5007021;28;20034;-74
2024/01/26 01:07:25;;;;;;;28.08;5.13;;;8.10;99.90;;;;;;5007911;28;20389;-74
2024/01/26 01:09:51;;;;;;;21.38;4.22;;;8.20;99.90;;;;;;5007752;28;20026;-74
2024/01/26 01:12:17;;;;;;;23.42;4.05;;;8.20;99.90;;;;;;5007785;28;20052;-74
2024/01/26 01:14:44;;;;;;;21.80;4.10;;;8.20;99.90;;;;;;5007706;28;20037;-74
2024/01/26 01:17:11;;;;;;;26.20;4.55;;;8.20;99.90;;;;;;4999665;28;20091;-75
2024/01/26 01:19:37;;;;;;;20.55;4.43;;;8.30;99.90;;;;;;5006959;28;20084;-75
2024/01/26 01:22:03;;;;;;;21.23;4.53;;;8.30;99.90;;;;;;5009081;28;20022;-75
2024/01/26 01:24:28;;;;;;;24.20;4.75;;;8.30;99.90;;;;;;5004613;28;20100;-74
2024/01/26 01:26:54;;;;;;;28.65;4.57;;;8.30;99.90;;;;;;5007486;28;20042;-75
2024/01/26 01:29:19;;;;;;;28.55;5.68;;;8.30;99.90;;;;;;5009432;28;20077;-74
2024/01/26 01:31:45;;;;;;;20.90;4.93;;;8.30;99.90;;;;;;5007804;28;20038;-74
2024/01/26 01:34:10;;;;;;;14.80;3.78;;;8.30;99.90;;;;;;5023575;28;20124;-74
2024/01/26 01:36:39;;;;;;;29.60;4.85;;;8.40;99.90;;;;;;5007830;28;20034;-74
2024/01/26 01:39:04;;;;;;;;;;;8.30;99.90;;;;;;5013197;28;20034;-74
2024/01/26 01:41:30;;;;;;;25.48;4.07;;;8.40;99.90;;;;;;5008043;28;19913;-75
2024/01/26 01:43:58;;;;;;;26.92;4.22;;;8.40;99.90;;;;;;5007584;28;20108;-74
2024/01/26 01:46:23;;;;;;;21.60;4.65;;;8.30;99.90;;;;;;5000608;28;20489;-74
2024/01/26 01:48:50;;;;;;;28.55;5.35;;;8.40;99.90;;;;;;5006687;28;20038;-74
2024/01/26 01:51:19;;;;;;;26.75;4.90;;;8.40;99.90;;;;;;5002853;28;20131;-74
2024/01/26 01:53:46;;;;;;;25.48;5.22;;;8.40;99.90;;;;;;5006054;28;20038;-74
2024/01/26 01:56:14;;;;;;;25.90;5.07;;;8.40;99.90;;;;;;4998439;28;20105;-74
2024/01/26 01:58:41;;;;;;;22.13;4.85;;;8.40;99.90;;;;;;5007367;28;20444;-74
2024/01/26 02:01:07;;;;;;;24.33;4.55;;;8.40;99.90;;;;;;5005362;28;20053;-74
2024/01/26 02:03:33;;;;;;;16.67;4.60;;;8.40;99.90;;;;;;5007209;28;20030;-74
2024/01/26 02:05:58;;;;;;;21.45;4.78;;;8.40;99.90;;;;;;5004704;28;20069;-74
2024/01/26 02:08:24;;;;;;;29.15;6.22;;;8.40;99.90;;;;;;4962703;28;20045;-73
2024/01/26 02:10:49;;;;;;;31.10;5.13;;;8.40;99.90;;;;;;5006909;28;20030;-74
2024/01/26 02:13:15;;;;;;;20.13;5.88;;;8.40;99.90;;;;;;5012577;28;20018;-74
2024/01/26 02:15:41;;;;;;;35.97;5.40;;;8.50;99.90;;;;;;5006221;28;20026;-74
2024/01/26 02:18:09;;;;;;;34.08;5.80;;;8.50;99.90;;;;;;5005460;28;20044;-74
2024/01/26 02:20:37;;;;;;;24.70;5.45;;;8.50;99.90;;;;;;5002593;28;20575;-74
2024/01/26 02:23:02;;;;;;;32.88;5.28;;;8.50;99.90;;;;;;5009084;28;20459;-74
2024/01/26 02:25:28;;;;;;;28.60;5.57;;;8.50;99.90;;;;;;5007647;28;20100;-74
2024/01/26 02:27:53;;;;;;;20.48;5.25;;;8.50;99.90;;;;;;4997874;28;20026;-74
2024/01/26 02:30:19;;;;;;;23.63;4.88;;;8.50;99.90;;;;;;5005643;28;20233;-75
2024/01/26 02:32:45;;;;;;;20.88;5.03;;;8.50;99.90;;;;;;5005626;28;20413;-74
2024/01/26 02:35:11;;;;;;;27.00;5.65;;;8.50;99.90;;;;;;5005443;28;20058;-76
2024/01/26 02:37:39;;;;;;;29.92;5.40;;;8.40;99.90;;;;;;5008860;28;20038;-74
2024/01/26 02:40:04;;;;;;;;;;;8.40;99.90;;;;;;5004150;28;20511;-74
2024/01/26 02:42:32;;;;;;;23.35;5.18;;;8.40;99.90;;;;;;5000625;28;19913;-74
2024/01/26 02:45:00;;;;;;;;;;;8.40;99.90;;;;;;4998678;28;20591;-74
2024/01/26 02:47:26;;;;;;;32.38;5.80;;;8.40;99.90;;;;;;4996475;28;19961;-73
2024/01/26 02:49:54;;;;;;;25.00;5.43;;;8.30;99.90;;;;;;5002322;28;20444;-74
2024/01/26 02:52:22;;;;;;;25.40;5.38;;;8.30;99.90;;;;;;4998972;28;20091;-75
2024/01/26 02:54:47;;;;;;;;;;;8.30;99.90;;;;;;5000535;28;20525;-74
2024/01/26 02:57:15;;;;;;;26.88;5.38;;;8.30;99.90;;;;;;5004443;28;19913;-73
2024/01/26 02:59:41;;;;;;;26.92;6.05;;;8.30;99.90;;;;;;4996195;28;20045;-74
2024/01/26 03:02:06;;;;;;;25.63;6.03;;;8.30;99.90;;;;;;4996295;28;20382;-74
2024/01/26 03:04:34;;;;;;;29.98;6.18;;;8.30;99.90;;;;;;4998886;28;20014;-74
2024/01/26 03:07:02;;;;;;;34.58;5.72;;;8.30;99.90;;;;;;5000637;28;20026;-74
2024/01/26 03:09:27;;;;;;;29.63;6.25;;;8.30;99.90;;;;;;4998732;28;20034;-74
2024/01/26 03:11:53;;;;;;;30.40;5.97;;;8.30;99.90;;;;;;4997431;28;20669;-73
2024/01/26 03:14:19;;;;;;;25.30;5.25;;;8.30;99.90;;;;;;5004225;28;20088;-74
2024/01/26 03:16:44;;;;;;;24.38;5.90;;;8.40;99.90;;;;;;5000698;28;20040;-74
2024/01/26 03:19:10;;;;;;;26.25;6.30;;;8.40;99.90;;;;;;5008017;28;20040;-73
2024/01/26 03:21:43;;;;;;;29.92;5.95;;;8.40;99.90;;;;;;4995729;28;20030;-73
2024/01/26 03:24:08;;;;;;;23.98;5.57;;;8.40;99.90;;;;;;4994863;28;20034;-73
2024/01/26 03:26:34;;;;;;;20.10;6.05;;;8.40;99.90;;;;;;4999325;28;20303;-74
2024/01/26 03:29:01;;;;;;;34.45;6.30;;;8.50;99.90;;;;;;5006680;28;20451;-74
2024/01/26 03:31:27;;;;;;;33.40;6.15;;;8.40;99.90;;;;;;5004360;28;20014;-73
2024/01/26 03:33:52;;;;;;;25.55;6.30;;;8.40;99.90;;;;;;5001509;28;20576;-74
2024/01/26 03:36:18;;;;;;;34.90;7.13;;;8.50;99.90;;;;;;5011776;28;20037;-74
2024/01/26 03:38:44;;;;;;;28.65;6.13;;;8.50;99.90;;;;;;5011069;28;20131;-74
2024/01/26 03:41:09;;;;;;;26.27;5.68;;;8.50;99.90;;;;;;5008622;28;20046;-74
2024/01/26 03:43:36;;;;;;;24.90;5.57;;;8.50;99.90;;;;;;5009739;28;20076;-73
2024/01/26 03:46:05;;;;;;;19.65;5.18;;;8.50;99.90;;;;;;5000338;28;20119;-74
2024/01/26 03:48:31;;;;;;;22.63;6.43;;;8.50;99.90;;;;;;5009188;28;20030;-74
2024/01/26 03:50:58;;;;;;;26.30;6.13;;;8.50;99.90;;;;;;5006923;28;20511;-74
2024/01/26 03:53:23;;;;;;;21.17;5.45;;;8.50;99.90;;;;;;5033780;28;20033;-74
2024/01/26 03:55:49;;;;;;;24.33;6.63;;;8.50;99.90;;;;;;5009521;28;20030;-73
2024/01/26 03:58:17;;;;;;;30.65;6.57;;;8.50;99.90;;;;;;5008804;28;20061;-74
2024/01/26 04:00:42;;;;;;;22.80;6.35;;;8.50;99.90;;;;;;5013685;28;20033;-74
2024/01/26 04:03:08;;;;;;;28.63;6.10;;;8.50;99.90;;;;;;5004758;28;20623;-74
2024/01/26 04:05:33;;;;;;;25.45;6.30;;;8.50;99.90;;;;;;5026104;28;20053;-74
2024/01/26 04:08:03;;;;;;;21.00;6.30;;;8.50;99.90;;;;;;5003028;28;20467;-74
2024/01/26 04:10:31;;;;;;;27.65;6.18;;;8.50;99.90;;;;;;5004445;28;20026;-73
2024/01/26 04:12:57;;;;;;;25.50;5.75;;;8.60;99.90;;;;;;5009092;28;20109;-74
2024/01/26 04:15:23;;;;;;;18.98;5.38;;;8.60;99.90;;;;;;5010199;28;20132;-73
2024/01/26 04:17:53;;;;;;;21.08;5.57;;;8.60;99.90;;;;;;5008294;28;20030;-73
2024/01/26 04:20:19;;;;;;;19.95;5.72;;;8.60;99.90;;;;;;5009121;28;20101;-73
2024/01/26 04:22:44;;;;;;;27.80;6.28;;;8.60;99.90;;;;;;5008742;28;20037;-73
2024/01/26 04:25:10;;;;;;;23.80;6.30;;;8.70;99.90;;;;;;5009562;28;20100;-74
2024/01/26 04:27:37;;;;;;;25.13;5.57;;;8.60;99.90;;;;;;5008493;28;20824;-74
2024/01/26 04:30:03;;;;;;;22.20;5.20;;;8.70;99.90;;;;;;5007041;28;20484;-73
2024/01/26 04:32:29;;;;;;;19.83;5.15;;;8.70;99.90;;;;;;5008777;28;20041;-73
2024/01/26 04:34:55;;;;;;;21.38;5.25;;;8.70;99.90;;;;;;5000748;28;20080;-74
2024/01/26 04:37:21;;;;;;;21.73;5.30;;;8.70;99.90;;;;;;5009617;28;20037;-74
2024/01/26 04:39:47;;;;;;;25.23;5.40;;;8.70;99.90;;;;;;5025105;28;20554;-73
2024/01/26 04:42:12;;;;;;;17.17;5.25;;;8.70;99.90;;;;;;5017056;28;20034;-74
2024/01/26 04:44:38;;;;;;;28.13;4.95;;;8.70;99.90;;;;;;5014655;28;20034;-74
2024/01/26 04:47:06;;;;;;;13.43;5.85;;;8.70;99.90;;;;;;5016414;28;20771;-74
2024/01/26 04:49:32;;;;;;;;;;;8.70;99.90;;;;;;5010959;28;20049;-74
2024/01/26 04:51:57;;;;;;;16.95;5.15;;;8.70;99.90;;;;;;4992739;28;20375;-74
2024/01/26 04:54:23;;;;;;;15.77;4.40;;;8.70;99.90;;;;;;5002002;28;20049;-74
2024/01/26 04:56:48;;;;;;;12.88;3.70;;;8.70;99.90;;;;;;5008567;28;20042;-73
2024/01/26 04:59:14;;;;;;;16.40;4.35;;;8.70;99.90;;;;;;5007313;28;20033;-73
2024/01/26 05:01:42;;;;;;;12.48;3.72;;;8.70;99.90;;;;;;5008559;28;20151;-73
2024/01/26 05:04:10;;;;;;;10.13;4.03;;;8.80;99.90;;;;;;5008375;28;20515;-73
2024/01/26 05:06:38;;;;;;;7.70;3.75;;;8.80;99.90;;;;;;5007242;28;20045;-73
2024/01/26 05:09:06;;;;;;;10.27;3.67;;;8.80;99.90;;;;;;5008177;28;20124;-73
2024/01/26 05:11:34;;;;;;;13.23;3.45;;;8.80;99.90;;;;;;4999585;28;20088;-74
2024/01/26 05:13:59;;;;;;;13.35;4.03;;;8.80;99.90;;;;;;5022681;28;20038;-74
2024/01/26 05:16:25;;;;;;;10.15;3.65;;;8.80;99.90;;;;;;5023245;28;20018;-73
2024/01/26 05:18:51;;;;;;;9.73;3.20;;;8.80;99.90;;;;;;5008804;28;20029;-74
2024/01/26 05:21:16;;;;;;;7.38;3.15;;;8.90;99.90;;;;;;5005867;28;20107;-73
2024/01/26 05:23:42;;;;;;;12.88;4.22;;;8.90;99.90;;;;;;5005991;28;20373;-73
2024/01/26 05:26:07;;;;;;;7.00;3.47;;;8.90;99.90;;;;;;5008871;28;20141;-74
2024/01/26 05:28:33;;;;;;;5.88;2.97;;;8.90;99.90;;;;;;5006290;28;20456;-74
2024/01/26 05:30:59;;;;;;;8.10;3.40;;;8.90;99.90;;;;;;5006394;28;20018;-74
2024/01/26 05:33:24;;;;;;;8.75;3.35;;;8.90;99.90;;;;;;5007479;28;20030;-73
2024/01/26 05:35:51;;;;;;;6.95;2.88;;;8.90;99.90;;;;;;5007926;28;20034;-74
2024/01/26 05:38:19;;;;;;;8.77;2.93;;;8.90;99.90;;;;;;5006884;28;20476;-74
2024/01/26 05:40:46;;;;;;;11.10;3.88;;;9.00;99.90;;;;;;5013988;28;20267;-73
2024/01/26 05:43:14;;;;;;;9.52;3.38;;;9.00;99.90;;;;;;5007490;28;20048;-74
2024/01/26 05:45:39;;;;;;;;;;;8.90;99.90;;;;;;5007844;28;20481;-73
2024/01/26 05:48:05;;;;;;;11.25;4.22;;;9.00;99.90;;;;;;5006993;28;19922;-74
2024/01/26 05:50:31;;;;;;;11.70;4.55;;;9.00;99.90;;;;;;5005517;28;20047;-74
2024/01/26 05:52:57;;;;;;;10.18;4.07;;;9.00;99.90;;;;;;4991418;28;20049;-73
2024/01/26 05:55:22;;;;;;;11.32;4.50;;;9.00;99.90;;;;;;5012162;28;20034;-73
2024/01/26 05:57:48;;;;;;;10.57;4.25;;;9.00;99.90;;;;;;5007568;28;20037;-73
2024/01/26 06:00:14;;;;;;;12.35;4.50;;;9.00;99.90;;;;;;5006555;28;20056;-74
2024/01/26 06:02:39;;;;;;;9.73;4.70;;;9.00;99.90;;;;;;5008014;28;20061;-73
2024/01/26 06:05:08;;;;;;;11.13;4.28;;;9.00;99.90;;;;;;5006792;28;20100;-74
2024/01/26 06:07:33;;;;;;;10.95;3.95;;;9.00;99.90;;;;;;5004262;28;20505;-74
2024/01/26 06:09:59;;;;;;;12.02;5.07;;;9.10;99.90;;;;;;5003695;28;20038;-74
2024/01/26 06:12:24;;;;;;;11.13;4.50;;;9.10;99.90;;;;;;4987028;28;20518;-74
2024/01/26 06:14:50;;;;;;;14.00;5.07;;;9.10;99.90;;;;;;5009549;28;20038;-74
2024/01/26 06:17:15;;;;;;;12.40;4.80;;;9.10;99.90;;;;;;4962956;28;20033;-74
2024/01/26 06:19:41;;;;;;;16.38;5.18;;;9.00;99.90;;;;;;5003616;28;20552;-73
2024/01/26 06:22:06;;;;;;;8.73;4.68;;;9.00;99.90;;;;;;5003591;28;20022;-73
2024/01/26 06:24:32;;;;;;;8.43;4.53;;;9.00;99.90;;;;;;4995309;28;20381;-73
2024/01/26 06:27:00;;;;;;;15.18;5.28;;;9.00;99.90;;;;;;4999199;28;20026;-73
2024/01/26 06:29:25;;;;;;;12.05;5.10;;;9.00;99.90;;;;;;4997465;28;20049;-74
2024/01/26 06:31:52;;;;;;;13.40;5.13;;;9.10;99.90;;;;;;4991151;28;20125;-73
2024/01/26 06:34:17;;;;;;;9.30;4.88;;;9.10;99.90;;;;;;5001060;28;20032;-74
2024/01/26 06:36:43;;;;;;;14.10;5.22;;;9.10;99.90;;;;;;4990827;28;20042;-73
2024/01/26 06:39:08;;;;;;;10.48;5.35;;;9.10;99.90;;;;;;4998282;28;20030;-74
2024/01/26 06:41:40;;;;;;;14.82;5.18;;;9.20;99.90;;;;;;5006377;28;20034;-74
2024/01/26 06:44:06;;;;;;;8.55;4.60;;;9.20;99.90;;;;;;5021499;28;20413;-74
2024/01/26 06:46:32;;;;;;;10.43;5.45;;;9.20;99.90;;;;;;5009161;23;20072;-74
2024/01/26 06:48:58;;;;;;;11.35;5.15;;;9.20;99.90;;;;;;4992880;28;20416;-73
2024/01/26 06:51:23;;;;;;;11.93;5.70;;;9.20;99.90;;;;;;5009028;28;20022;-74
2024/01/26 06:53:49;;;;;;;11.77;5.65;;;9.20;99.90;;;;;;5009798;28;20034;-73
2024/01/26 06:56:14;;;;;;;18.92;5.63;;;9.20;99.90;;;;;;5001021;28;20140;-75
2024/01/26 06:58:42;;;;;;;11.30;5.35;;;9.30;99.90;;;;;;5017233;28;20025;-76
2024/01/26 07:01:08;;;;;;;10.50;5.78;;;9.40;99.90;;;;;;5010112;28;20034;-76
2024/01/26 07:03:33;;;;;;;14.10;5.57;;;9.40;99.90;;;;;;5004253;28;20034;-75
2024/01/26 07:05:59;;;;;;;9.32;5.13;;;9.40;99.90;;;;;;4985345;28;20030;-73
2024/01/26 07:08:25;;;;;;;10.57;5.13;;;9.40;99.90;;;;;;4989905;28;20031;-74
2024/01/26 07:10:50;;;;;;;10.35;5.68;;;9.50;99.90;;;;;;4999467;28;20034;-74
2024/01/26 07:13:16;;;;;;;10.55;5.90;;;9.50;99.90;;;;;;5003044;28;20069;-73
2024/01/26 07:15:41;;;;;;;12.52;6.13;;;9.50;99.90;;;;;;5001917;28;20478;-74
2024/01/26 07:18:07;;;;;;;8.45;5.35;;;9.60;99.90;;;;;;5001061;28;20125;-73
2024/01/26 07:20:35;;;;;;;13.02;5.82;;;9.60;99.90;;;;;;5000218;28;20036;-74
2024/01/26 07:23:00;;;;;;;14.65;6.63;;;9.60;99.90;;;;;;5002668;28;20046;-74
2024/01/26 07:25:26;;;;;;;11.05;5.65;;;9.60;99.90;;;;;;5003163;28;20042;-74
2024/01/26 07:27:51;;;;;;;10.40;5.60;;;9.80;99.90;;;;;;4990479;28;20048;-74
2024/01/26 07:30:19;;;;;;;9.07;5.65;;;9.70;99.90;;;;;;5001483;28;20038;-73
2024/01/26 07:32:45;;;;;;;;;;;9.70;99.90;;;;;;4962123;28;20022;-73
2024/01/26 07:35:11;;;;;;;12.75;6.15;;;9.80;99.90;;;;;;4914331;28;20144;-77
2024/01/26 07:37:37;;;;;;;12.73;6.60;;;9.80;99.90;;;;;;4988283;28;20565;-74
2024/01/26 07:40:04;;;;;;;10.77;6.25;;;9.80;99.90;;;;;;4974727;28;20910;-74
2024/01/26 07:42:33;;;;;;;10.15;5.93;;;9.80;99.90;;;;;;4986172;28;20566;-74
2024/01/26 07:45:01;;;;;;;12.25;6.22;;;9.90;99.90;;;;;;4998671;28;20038;-75
2024/01/26 07:47:29;;;;;;;;;;;9.90;99.90;;;;;;4999131;28;20112;-74
2024/01/26 07:49:55;;;;;;;9.07;5.35;;;9.90;99.90;;;;;;5000756;28;19996;-74
2024/01/26 07:52:21;;;;;;;9.27;5.80;;;9.90;99.90;;;;;;5000956;28;20683;-74
2024/01/26 07:54:48;;;;;;;14.27;6.05;;;10.00;99.90;;;;;;5000710;28;20096;-74
2024/01/26 07:57:16;;;;;;;9.13;6.00;;;10.10;99.90;;;;;;5001059;28;20045;-74
2024/01/26 07:59:42;;;;;;;12.23;5.55;;;10.10;99.90;;;;;;4997868;28;20038;-74
2024/01/26 08:02:07;;;;;;;8.43;5.53;;;10.10;99.90;;;;;;5017143;28;20137;-74
2024/01/26 08:04:33;;;;;;;9.55;5.07;;;10.10;99.90;;;;;;5003343;28;20105;-74
2024/01/26 08:07:01;;;;;;;13.48;6.00;;;10.10;99.90;;;;;;5005382;28;20034;-75
2024/01/26 08:09:26;;;;;;;8.85;5.03;;;10.20;99.90;;;;;;5001751;28;20041;-74
2024/01/26 08:11:52;;;;;;;9.82;5.25;;;10.20;99.90;;;;;;4999799;28;20124;-74
2024/01/26 08:14:17;;;;;;;10.93;4.75;;;10.20;99.90;;;;;;4997548;28;20180;-74
2024/01/26 08:16:43;;;;;;;11.10;5.18;;;10.30;99.90;;;;;;5002222;28;20053;-74
2024/01/26 08:19:11;;;;;;;10.18;4.85;;;10.30;99.90;;;;;;5005277;28;20022;-74
2024/01/26 08:21:36;;;;;;;7.55;4.65;;;10.30;99.90;;;;;;5002313;28;20487;-74
2024/01/26 08:24:02;;;;;;;9.23;4.78;;;10.30;99.90;;;;;;4999778;28;20049;-74
2024/01/26 08:26:28;;;;;;;7.40;4.13;;;10.30;99.90;;;;;;5006499;28;20061;-75
2024/01/26 08:28:54;;;;;;;9.23;4.60;;;10.30;99.90;;;;;;5003072;28;20523;-74
2024/01/26 08:31:19;;;;;;;9.38;4.57;;;10.30;99.90;;;;;;5001804;28;20022;-74
2024/01/26 08:33:47;;;;;;;7.63;3.95;;;10.30;99.90;;;;;;4998296;28;20084;-75
2024/01/26 08:36:15;;;;;;;8.98;4.90;;;10.30;99.90;;;;;;5003933;28;20037;-74
2024/01/26 08:38:40;;;;;;;7.82;4.40;;;10.30;99.90;;;;;;5007481;28;20034;-74
2024/01/26 08:41:07;;;;;;;10.85;5.00;;;10.40;99.90;;;;;;4996240;28;20131;-74
2024/01/26 08:43:32;;;;;;;8.35;4.85;;;10.40;99.90;;;;;;5001264;28;20117;-73
2024/01/26 08:46:02;;;;;;;10.18;4.93;;;10.40;99.90;;;;;;5004927;28;20156;-74
2024/01/26 08:48:29;;;;;;;8.07;5.03;;;10.50;99.90;;;;;;4999817;28;20042;-74
2024/01/26 08:50:55;;;;;;;11.25;5.72;;;10.50;99.90;;;;;;4997866;28;20108;-75
2024/01/26 08:53:23;;;;;;;8.73;5.45;;;10.60;99.90;;;;;;5000791;28;20038;-75
2024/01/26 08:55:50;;;;;;;10.80;6.03;;;10.60;99.90;;;;;;5001417;28;20084;-74
2024/01/26 08:58:18;;;;;;;15.27;5.75;;;10.60;99.90;;;;;;5000385;28;20638;-74
2024/01/26 09:00:45;;;;;;;9.50;5.00;;;10.70;99.90;;;;;;4998280;28;20137;-75
2024/01/26 09:03:11;;;;;;;13.85;5.55;;;10.70;99.90;;;;;;4998023;28;20042;-74
2024/01/26 09:05:36;;;;;;;15.73;6.43;;;10.70;99.90;;;;;;5002394;28;20061;-74
2024/01/26 09:08:05;;;;;;;16.63;5.82;;;10.70;99.90;;;;;;5000515;28;20038;-74
2024/01/26 09:10:30;;;;;;;9.85;5.57;;;10.70;99.90;;;;;;5001789;28;20064;-74
2024/01/26 09:12:56;;;;;;;10.27;5.05;;;10.80;99.90;;;;;;5004220;28;20041;-74
2024/01/26 09:15:24;;;;;;;10.40;5.60;;;10.80;99.90;;;;;;5002110;28;20109;-75
2024/01/26 09:17:52;;;;;;;14.45;5.88;;;10.80;99.90;;;;;;5004203;28;20084;-74
2024/01/26 09:20:18;;;;;;;;;;;10.80;99.90;;;;;;5003690;28;20070;-75
2024/01/26 09:22:43;;;;;;;9.93;4.82;;;10.80;99.90;;;;;;5003311;28;19913;-75
2024/01/26 09:25:09;;;;;;;10.07;5.38;;;10.80;99.90;;;;;;5003178;28;20144;-73
2024/01/26 09:27:34;;;;;;;14.27;5.65;;;10.80;99.90;;;;;;5016631;28;20504;-74
2024/01/26 09:30:01;;;;;;;11.60;5.10;;;10.80;99.90;;;;;;4999323;28;20041;-74
2024/01/26 09:32:27;;;;;;;10.10;4.60;;;10.70;99.90;;;;;;5003819;28;20033;-74
2024/01/26 09:34:52;;;;;;;10.23;5.10;;;10.70;99.90;;;;;;5005111;28;20041;-74
2024/01/26 09:37:20;;;;;;;7.90;4.78;;;10.70;99.90;;;;;;5000097;28;20033;-74
2024/01/26 09:39:46;;;;;;;9.15;4.60;;;10.70;99.90;;;;;;5003367;28;20037;-74
2024/01/26 09:42:11;;;;;;;9.13;4.18;;;10.60;99.90;;;;;;4996947;28;20038;-77
2024/01/26 09:44:40;;;;;;;7.43;3.75;;;10.70;99.90;;;;;;4993954;28;20035;-74
2024/01/26 09:47:10;;;;;;;8.18;4.47;;;10.70;99.90;;;;;;4999879;28;20577;-74
2024/01/26 09:49:43;;;;;;;5.03;3.20;;;10.70;99.90;;;;;;4992967;28;20105;-74
2024/01/26 09:52:11;;;;;;;7.10;3.15;;;10.70;99.90;;;;;;5002715;28;20014;-74
2024/01/26 09:54:39;;;;;;;;;;;10.70;99.90;;;;;;5001797;28;20133;-74
2024/01/26 09:57:07;;;;;;;;;;;10.70;99.90;;;;;;4999721;28;19920;-74
2024/01/26 09:59:35;;;;;;;8.00;2.60;;;10.80;99.90;;;;;;5004379;28;19913;-74
2024/01/26 10:02:02;;;;;;;;;;;10.70;99.90;;;;;;5000584;28;20034;-74
2024/01/26 10:04:28;;;;;;;7.10;2.83;;;10.70;99.90;;;;;;4999233;28;19913;-74
2024/01/26 10:06:54;;;;;;;7.00;2.80;;;10.70;99.90;;;;;;5004001;28;20030;-74
2024/01/26 10:09:22;;;;;;;3.17;2.17;;;10.60;99.90;;;;;;5012688;28;20179;-74
2024/01/26 10:11:48;;;;;;;4.97;2.58;;;10.70;99.90;;;;;;4997667;28;20105;-74
2024/01/26 10:14:25;;;;;;;7.03;3.35;;;10.70;99.90;;;;;;4997203;28;20552;-74
2024/01/26 10:16:55;;;;;;;5.90;2.78;;;10.60;99.90;;;;;;4995086;28;20034;-74
2024/01/26 10:19:25;;;;;;;4.97;2.80;;;10.70;99.90;;;;;;4999839;28;20040;-74
2024/01/26 10:21:51;;;;;;;4.32;2.65;;;10.70;99.90;;;;;;4999969;28;20069;-74
2024/01/26 10:24:21;;;;;;;6.80;2.92;;;10.60;99.90;;;;;;5003956;28;20121;-74
2024/01/26 10:26:50;;;;;;;2.63;2.03;;;10.60;99.90;;;;;;4998184;28;21685;-74
2024/01/26 10:29:15;;;;;;;5.88;2.25;;;10.60;99.90;;;;;;5008763;28;20520;-73
2024/01/26 10:31:41;;;;;;;6.25;2.47;;;10.70;99.90;;;;;;5001714;28;20069;-74
2024/01/26 10:34:18;;;;;;;2.80;1.98;;;10.60;99.90;;;;;;4997923;28;20026;-73
2024/01/26 10:36:45;;;;;;;4.15;1.77;;;10.60;99.90;;;;;;4998504;28;20034;-74
2024/01/26 10:39:28;;;;;;;1.85;1.42;;;10.60;99.90;;;;;;5000830;28;20460;-75
2024/01/26 10:41:57;;;;;;;2.67;1.85;;;10.60;99.90;;;;;;5002015;28;20054;-73
2024/01/26 10:44:25;;;;;;;4.28;1.52;;;10.70;99.90;;;;;;4998319;28;20100;-74
2024/01/26 10:46:52;;;;;;;2.15;1.40;;;10.70;99.90;;;;;;4998543;28;20042;-73
2024/01/26 10:49:19;;;;;;;1.73;1.43;;;10.70;99.90;;;;;;4997891;28;20496;-73
2024/01/26 10:51:47;;;;;;;6.35;1.88;;;10.80;99.90;;;;;;5000428;28;20038;-73
2024/01/26 10:54:13;;;;;;;2.50;1.08;;;10.80;99.90;;;;;;5000182;28;20034;-74
2024/01/26 10:56:39;;;;;;;1.92;1.30;;;10.80;99.90;;;;;;5002042;28;20388;-73
2024/01/26 10:59:10;;;;;;;3.15;1.30;;;10.80;99.90;;;;;;5001013;28;20045;-73
2024/01/26 11:01:39;;;;;;;2.65;1.00;;;10.80;99.90;;;;;;4992769;28;20030;-74
2024/01/26 11:04:08;;;;;;;1.45;1.23;;;10.90;99.90;;;;;;5000072;28;20026;-73
2024/01/26 11:06:34;;;;;;;2.72;1.20;;;10.90;99.90;;;;;;4994496;28;20031;-73
2024/01/26 11:09:03;;;;;;;2.65;1.10;;;11.00;99.90;;;;;;4995996;28;20166;-74
2024/01/26 11:11:32;;;;;;;2.28;0.90;;;11.00;99.90;;;;;;4996700;28;20369;-73
2024/01/26 11:14:02;;;;;;;6.20;1.10;;;11.00;99.90;;;;;;4997706;28;20035;-74
2024/01/26 11:16:42;;;;;;;0.70;0.70;;;11.10;99.90;;;;;;5003973;28;20029;-75
2024/01/26 11:19:09;;;;;;;1.08;0.80;;;11.10;99.90;;;;;;5002789;28;20048;-74
2024/01/26 11:21:46;;;;;;;2.35;1.17;;;11.20;99.90;;;;;;4998861;28;21994;-74
2024/01/26 11:24:14;;;;;;;1.23;0.88;;;11.20;99.90;;;;;;4997893;28;20038;-74
2024/01/26 11:26:40;;;;;;;5.47;1.08;;;11.30;99.90;;;;;;4998768;28;20041;-74
2024/01/26 11:29:16;;;;;;;2.83;1.13;;;11.30;99.90;;;;;;4996042;28;20141;-74
2024/01/26 11:31:42;;;;;;;0.77;0.77;;;11.40;99.90;;;;;;5001332;28;20034;-74
2024/01/26 11:34:18;;;;;;;1.38;1.10;;;11.50;99.90;;;;;;5003069;28;20037;-74
2024/01/26 11:36:45;;;;;;;1.25;1.05;;;11.60;99.90;;;;;;5004804;28;20044;-74
2024/01/26 11:39:15;;;;;;;3.05;1.15;;;11.60;99.90;;;;;;4998730;28;20388;-74
2024/01/26 11:41:45;;;;;;;1.85;1.10;;;11.70;99.90;;;;;;4999011;28;20095;-75
2024/01/26 11:44:20;;;;;;;1.75;1.20;;;11.70;99.90;;;;;;4995104;28;20038;-75
2024/01/26 11:46:46;;;;;;;1.35;1.20;;;11.70;99.90;;;;;;5000361;28;20092;-77
2024/01/26 11:49:12;;;;;;;1.85;1.15;;;11.80;99.90;;;;;;5004025;28;20058;-77
2024/01/26 11:51:38;;;;;;;5.20;1.50;;;11.80;99.90;;;;;;5001553;28;20523;-77
2024/01/26 11:54:04;;;;;;;1.83;1.42;;;11.80;99.90;;;;;;5000885;28;20116;-77
2024/01/26 11:56:30;;;;;;;1.25;1.10;;;11.80;99.90;;;;;;5003239;28;20480;-77
2024/01/26 11:58:59;;;;;;;1.98;1.30;;;11.90;99.90;;;;;;5003252;28;20046;-76
2024/01/26 12:01:24;;;;;;;2.13;1.60;;;11.90;99.90;;;;;;5018569;28;20111;-77
2024/01/26 12:03:50;;;;;;;3.45;1.30;;;12.00;99.90;;;;;;5006745;28;20469;-78
2024/01/26 12:06:16;;;;;;;2.10;1.30;;;11.90;99.90;;;;;;5002756;28;20036;-77
2024/01/26 12:08:42;;;;;;;2.70;1.90;;;11.90;99.90;;;;;;5003496;28;20126;-77
2024/01/26 12:11:12;;;;;;;2.78;1.58;;;11.90;99.90;;;;;;5002897;28;20034;-75
2024/01/26 12:13:39;;;;;;;1.75;1.25;;;11.90;99.90;;;;;;5004507;28;20034;-75
2024/01/26 12:16:06;;;;;;;2.15;0.63;;;11.90;99.90;;;;;;4999099;28;20018;-75
2024/01/26 12:18:31;;;;;;;0.95;0.45;;;11.60;99.90;;;;;;5003673;28;20038;-74
2024/01/26 12:20:57;;;;;;;0.55;0.47;;;11.40;99.90;;;;;;5004595;28;20103;-74
2024/01/26 12:23:23;;;;;;;1.02;0.50;;;11.20;99.90;;;;;;5005423;28;20042;-76
2024/01/26 12:25:50;;;;;;;2.40;0.32;;;11.10;99.90;;;;;;5004738;28;20493;-75
2024/01/26 12:28:19;;;;;;;1.25;0.50;;;11.00;99.90;;;;;;5000234;28;20785;-74
2024/01/26 12:30:46;;;;;;;0.60;0.20;;;11.00;99.90;;;;;;5000582;28;20132;-74
2024/01/26 12:33:11;;;;;;;1.55;0.32;;;10.90;99.90;;;;;;5000652;28;20034;-74
2024/01/26 12:35:41;;;;;;;0.20;0.20;;;10.80;99.90;;;;;;5006356;28;20038;-75
2024/01/26 12:38:10;;;;;;;2.50;0.30;;;10.80;99.90;;;;;;5001355;28;20483;-75
2024/01/26 12:40:36;;;;;;;1.02;0.30;;;10.60;99.90;;;;;;5016492;28;20264;-74
2024/01/26 12:43:03;;;;;;;2.90;0.45;;;10.50;99.90;;;;;;5004568;28;20029;-75
2024/01/26 12:45:31;;;;;;;0.63;0.30;;;10.50;99.90;;;;;;5011258;23;20068;-75
2024/01/26 12:47:56;;;;;;;0.30;0.20;;;10.50;99.90;;;;;;5023207;28;20132;-74